Millville Municipal Airport
KMIV : rendu visible

Aérodrome :











RETROUVEZ-NOUS SUR...

 
LOGIN :

S'inscrire | Disclaimer

   EN    FR    IT 

 









Légende :    VFR   VFR Marginal   IFR   IFR Intensif   IFR Très Intensif
Visi : 
Plafond : 
>= 8 km
>= 3000ft
5 à 8 km
1000 à 3000 ft
1500m à 5 km
500 à 1000 ft
800 à 1500m
200 à 500 ft
< 800m
< 200 ft
Symboles :   Orages  Brouillard  Fortes neiges  Fortes précipitations  Vent > 20 kt







- Altitude de l'aérodrome : 85 ft


KMIV - Millville Municipal

DERNIER METAR :
  • 201354Z AUTO 16011G25KT 10SM OVC011 18/17 A2969 RMK AO2 RAE15 SLP051 P0001 T01780167

METARs EXPIRÉS :
  • 201330Z AUTO 16014G23KT 140V200 10SM BKN013 BKN021 OVC047 18/17 A2968 RMK AO2 RAE15 P0001 T01830167
  • 201304Z AUTO 15010G18KT 4SM -RA BR FEW007 BKN055 OVC100 17/17 A2967 RMK AO2 P0000 T01720167
  • 201254Z AUTO 17008G19KT 130V200 3SM -RA BR BKN009 BKN049 OVC100 17/17 A2969 RMK AO2 SLP051 P0006 T01720167
  • 201249Z AUTO 17009G19KT 3SM -RA BR BKN009 BKN055 OVC100 17/17 A2969 RMK AO2 P0006
  • 201232Z AUTO 16007KT 120V180 5SM -RA BR BKN014 BKN024 OVC100 18/17 A2967 RMK AO2 P0002 T01780172
  • 201225Z AUTO 18008G17KT 4SM -RA BR FEW007 BKN070 OVC100 18/17 A2968 RMK AO2 P0002 T01780172
  • 201215Z AUTO 17009G18KT 140V210 4SM -RA BR SCT007 BKN022 OVC100 18/17 A2968 RMK AO2 P0001 T01780172
  • 201154Z AUTO 18009G21KT 150V230 6SM -RA BR OVC006 18/17 A2968 RMK AO2 PK WND 17027/1135 SLP049 P0005 60029 70075 T01780172 10189 20167 53007

TAF KMIV
Valide du 20 à 13h jusqu'au 21 à 12h UTC


201315Z 2013/2112 15012G25KT 5SM -SHRA BR SCT010 OVC045
TEMPO 2013/2015 2SM RA BR OVC010
FM201600 17012KT P6SM VCSH BKN015
FM201900 16012G20KT P6SM BKN035
FM202100 17012G18KT P6SM SCT035 BKN200
FM210200 18004KT P6SM SCT250
FIR KZDC / Amérique du Nord



MET'MAP, la Météo Aéronautique d'un coup d'oeil ! - Copyright ORBIFLY Décembre 2007 - Disclaimer

ORBIFLY MET'MAP TEAM :

Programmation & Développement : Alexandra Zaïnal
Conception & Développement : Baudouin d'Aumeries
Co-Programmation & Développement : Marc-Olivier Méhu
Soutien technique & logistique : Manuel Goepfert

Contact : metmap@orbifly.com




SOURCES & CREDITS :

   NOAA       Earth
Advisory